• Join FlightAware (Why Join?)
  • Login
  • US Flag 
02:21PM EDT


 

Airport Tracker/Info


-or-


 

Live Flight TrackerFlight Track Log ✈ VH-NTE ✈ 25-Jul-2013 ✈ YWBR - YPKG / KGI

Flight Track Log - Related Links

Times and Time Zones

All times are in EDT time to prevent confusion due to time zone crossing. See the VH-NTE flight status page for this flight to view local times or setup timezone preferences in your user account.

Time Position Orientation Groundspeed Altitude Reporting Facility
EDT Latitude Longitude Course Direction KTS MPH feet Rate Location/Type
02:56AM -26.2610 126.5130 360° North 24,000  Level Aus ATC (Calculated)
02:57AM -26.2610 126.5130 44° Northeast 24,000  Level Aus ATC (Calculated)
02:59AM -26.2078 126.5697 44° Northeast  Level FlightAware Approximate
03:00AM -26.2480 126.5275 224° Southwest  Level Estimated
03:00AM -26.4050 126.3588 224° Southwest 24,000  Level Aus ATC (Calculated)
03:02AM -26.4581 126.3019 224° Southwest  Level FlightAware Approximate
03:03AM -26.4979 126.2592 224° Southwest  Level FlightAware Approximate
03:04AM -26.5377 126.2165 224° Southwest  Level FlightAware Approximate
03:05AM -26.5774 126.1737 224° Southwest  Level FlightAware Approximate
03:05AM -26.5490 126.2044 224° Southwest 24,000  Level Aus ATC (Calculated)
03:06AM -26.6172 126.1309 224° Southwest  Level FlightAware Approximate
03:07AM -26.6073 126.1416 224° Southwest  Level FlightAware Approximate
03:08AM -26.6470 126.0988 224° Southwest  Level FlightAware Approximate
03:09AM -26.6867 126.0559 224° Southwest  Level FlightAware Approximate
03:10AM -26.7264 126.0130 224° Southwest  Level FlightAware Approximate
03:11AM -26.7661 125.9701 224° Southwest  Level FlightAware Approximate
03:12AM -26.8058 125.9272 224° Southwest  Level FlightAware Approximate
03:13AM -26.8455 125.8842 224° Southwest  Level FlightAware Approximate
03:14AM -26.8852 125.8412 224° Southwest  Level FlightAware Approximate
03:15AM -26.9248 125.7982 224° Southwest  Level FlightAware Approximate
03:15AM -26.9080 125.8164 224° Southwest 24,000  Level Aus ATC (Calculated)
03:15AM -26.9797 125.7386 290° West 24,000  Level Aus ATC (Calculated)
03:15AM -26.9797 125.7385 224° Southwest 24,000  Level Aus ATC (Calculated)
03:17AM -27.0304 125.6834 224° Southwest  Level FlightAware Approximate
03:18AM -27.0684 125.6420 224° Southwest  Level FlightAware Approximate
03:19AM -27.1064 125.6005 224° Southwest  Level FlightAware Approximate
03:20AM -27.1444 125.5590 224° Southwest  Level FlightAware Approximate
03:21AM -27.1824 125.5175 224° Southwest  Level FlightAware Approximate
03:22AM -27.2204 125.4760 224° Southwest  Level FlightAware Approximate
03:23AM -27.2583 125.4344 224° Southwest  Level FlightAware Approximate
03:24AM -27.2963 125.3928 224° Southwest  Level FlightAware Approximate
03:25AM -27.3342 125.3512 224° Southwest  Level FlightAware Approximate
03:26AM -27.3721 125.3096 224° Southwest  Level FlightAware Approximate
03:27AM -27.4100 125.2679 224° Southwest  Level FlightAware Approximate
03:28AM -27.4479 125.2262 224° Southwest  Level FlightAware Approximate
03:29AM -27.4858 125.1845 224° Southwest  Level FlightAware Approximate
03:30AM -27.5237 125.1427 224° Southwest  Level FlightAware Approximate
03:31AM -27.5615 125.1009 224° Southwest  Level FlightAware Approximate
03:32AM -27.5994 125.0591 224° Southwest  Level FlightAware Approximate
03:33AM -27.6372 125.0173 224° Southwest  Level FlightAware Approximate
03:34AM -27.6750 124.9754 224° Southwest  Level FlightAware Approximate
03:35AM -27.7128 124.9335 224° Southwest  Level FlightAware Approximate
03:36AM -27.7506 124.8916 224° Southwest  Level FlightAware Approximate
03:37AM -27.7884 124.8496 224° Southwest  Level FlightAware Approximate
03:38AM -27.8262 124.8076 225° Southwest  Level FlightAware Approximate
03:39AM -27.8639 124.7656 225° Southwest  Level FlightAware Approximate
03:40AM -27.9017 124.7235 225° Southwest  Level FlightAware Approximate
03:41AM -27.9394 124.6815 225° Southwest  Level FlightAware Approximate
03:42AM -27.9771 124.6394 225° Southwest  Level FlightAware Approximate
03:43AM -28.0148 124.5972 225° Southwest  Level FlightAware Approximate
03:44AM -28.0531 124.5557 224° Southwest  Level Estimated
03:45AM -28.0913 124.5142 224° Southwest  Level FlightAware Approximate
03:46AM -28.1296 124.4726 224° Southwest  Level FlightAware Approximate
03:47AM -28.1678 124.4311 224° Southwest  Level FlightAware Approximate
03:48AM -28.2061 124.3895 224° Southwest  Level FlightAware Approximate
03:49AM -28.2443 124.3478 224° Southwest  Level FlightAware Approximate
03:50AM -28.2825 124.3062 224° Southwest  Level FlightAware Approximate
03:51AM -28.3207 124.2645 224° Southwest  Level FlightAware Approximate
03:52AM -28.3589 124.2228 224° Southwest  Level FlightAware Approximate
03:52AM -28.3330 124.2398 224° Southwest 24,000  Level Aus ATC (Calculated)
03:54AM -28.4070 124.1593 224° Southwest  Level FlightAware Approximate
03:55AM -28.4452 124.1176 224° Southwest  Level FlightAware Approximate
03:55AM -28.4416 124.1187 224° Southwest 400  Level Aus ATC (Calculated)
03:56AM -28.4794 124.0775 224° Southwest 400  Level Aus ATC (Calculated)
03:58AM -28.5532 123.9968 224° Southwest  Level FlightAware Approximate
03:59AM -28.5914 123.9550 224° Southwest  Level FlightAware Approximate
04:00AM -28.6296 123.9132 224° Southwest  Level FlightAware Approximate
04:01AM -28.6678 123.8713 224° Southwest  Level FlightAware Approximate
04:01AM -28.7057 123.8297 224° Southwest 400  Level Aus ATC (Calculated)
04:02AM -28.7439 123.7877 224° Southwest  Level FlightAware Approximate
04:02AM -28.7811 123.7468 360° North 400  Level Aus ATC (Calculated)
04:02AM -28.7811 123.7468 224° Southwest 400  Level Aus ATC (Calculated)
04:03AM -28.8187 123.7053 44° Northeast 400  Level Aus ATC (Calculated)
04:04AM -28.8165 123.7078 224° Southwest  Level FlightAware Approximate
04:05AM -28.8650 123.6543 224° Southwest  Level FlightAware Approximate
04:06AM -28.8993 123.6165 224° Southwest  Level FlightAware Approximate
04:07AM -28.9335 123.5787 224° Southwest  Level FlightAware Approximate
04:08AM -28.9677 123.5408 224° Southwest  Level FlightAware Approximate
04:08AM -29.0068 123.4975 44° Northeast 400  Level Aus ATC (Calculated)
04:09AM -29.0019 123.5029 224° Southwest  Level FlightAware Approximate
04:10AM -29.0549 123.4442 224° Southwest  Level FlightAware Approximate
04:10AM -29.1195 123.3725 44° Northeast 400  Level Aus ATC (Calculated)
04:11AM -29.0939 123.4010 224° Southwest  Level FlightAware Approximate
04:12AM -29.1591 123.3285 224° Southwest  Level FlightAware Approximate
04:12AM -29.1571 123.3307 224° Southwest 400  Level Aus ATC (Calculated)
04:14AM -29.2317 123.2477 224° Southwest  Level FlightAware Approximate
04:15AM -29.2705 123.2043 224° Southwest  Level FlightAware Approximate
04:16AM -29.3094 123.1609 224° Southwest  Level FlightAware Approximate
04:17AM -29.3483 123.1174 224° Southwest  Level FlightAware Approximate
04:18AM -29.3871 123.0739 224° Southwest  Level FlightAware Approximate
04:19AM -29.4260 123.0304 224° Southwest  Level FlightAware Approximate
04:20AM -29.4648 122.9868 224° Southwest  Level FlightAware Approximate
04:21AM -29.5036 122.9433 224° Southwest  Level FlightAware Approximate
04:22AM -29.5424 122.8996 224° Southwest  Level FlightAware Approximate
04:22AM -29.6065 122.8275 254° West 400  Level Aus ATC (Calculated)
04:22AM -29.6065 122.8275 44° Northeast 400  Level Aus ATC (Calculated)
04:23AM -29.5812 122.8560 224° Southwest  Level FlightAware Approximate
04:24AM -29.6511 122.7772 224° Southwest  Level FlightAware Approximate
04:25AM -29.6898 122.7335 224° Southwest  Level FlightAware Approximate
04:26AM -29.7285 122.6897 224° Southwest  Level FlightAware Approximate
04:27AM -29.7673 122.6459 224° Southwest  Level FlightAware Approximate
04:28AM -29.8060 122.6020 225° Southwest  Level FlightAware Approximate
04:29AM -29.8446 122.5581 225° Southwest  Level FlightAware Approximate
04:30AM -29.8833 122.5142 225° Southwest  Level FlightAware Approximate
04:31AM -29.9220 122.4703 225° Southwest  Level FlightAware Approximate
04:32AM -29.9606 122.4263 224° Southwest  Level FlightAware Approximate
04:33AM -29.9992 122.3823 225° Southwest  Level FlightAware Approximate
04:34AM -30.0378 122.3382 225° Southwest  Level FlightAware Approximate
04:35AM -30.0764 122.2941 225° Southwest  Level FlightAware Approximate
04:36AM -30.1150 122.2500 225° Southwest  Level FlightAware Approximate
04:37AM -30.1536 122.2058 225° Southwest  Level FlightAware Approximate
04:38AM -30.1921 122.1617 225° Southwest  Level FlightAware Approximate
04:39AM -30.2307 122.1174 225° Southwest  Level FlightAware Approximate
04:40AM -30.2689 122.0729 347° North  Level Estimated
04:40AM -30.3141 122.0215 225° Southwest 400  Level Aus ATC (Calculated)
04:42AM -30.3733 121.9522 347° North  Level Estimated
04:43AM -30.4115 121.9075 347° North  Level Estimated
04:43AM -30.4624 121.8504 40° Northeast 400  Level Aus ATC (Calculated)
04:44AM -30.4496 121.8627 347° North  Level Estimated
04:45AM -30.5074 121.7971 347° North  Level Estimated
04:46AM -30.5454 121.7521 347° North  Level Estimated
04:47AM -30.5833 121.7071 347° North  Level Estimated
04:48AM -30.6213 121.6620 347° North  Level Estimated
04:49AM -30.6592 121.6169 347° North  Level Estimated
04:50AM -30.6971 121.5718 347° North  Level Estimated
04:51AM -30.7351 121.5266 347° North  Level Estimated
04:52AM -30.7729 121.4814 347° North  Level Estimated
04:53AM -30.7894 121.4617 347° North  Level FlightAware Approximate
04:54AM -30.7894 121.4617 347° North  Level Estimated
04:55AM -30.7894 121.4617 347° North  Level Estimated
04:56AM -30.7894 121.4617 347° North  Level Estimated
04:57AM -30.7894 121.4617 347° North  Level Estimated
04:58AM -30.7894 121.4617 347° North  Level Estimated
04:59AM -30.7894 121.4617 347° North  Level Estimated
05:00AM -30.7894 121.4617 347° North  Level Estimated